Latest METARs, TAFs and NOTAMs for ETSI


---------------------------------------------------------------------------
	(OBSERVATIONS)
ETSI 271220Z 11005KT 9999 30/16 Q1019 BLU+=
ETSI 271211Z 08004KT 9999 29/16 Q1019 BLU+=
ETSI 271120Z AUTO 08005KT 9999 // ////// 28/16 Q1020 ///=
---------------------------------------------------------------------------
	(FC)
TAF ETSI 261015Z 2611/2620 VRB03KT 9999 NSW SKC
             CANCEL 1200=
---------------------------------------------------------------------------
	(TERMINAL AREA FORECAST)
ETSI 261015Z 2611/2620 VRB03KT 9999 NSW SKC
    CANCEL 1200=
---------------------------------------------------------------------------
	(NOTAMS)


ETSI P3574/16 AD ETSI: RWY25L CABLE NO.1 OUT OF SERVICE. 03 JUN
    08:24 2016 UNTIL 02 SEP 12:00 2016. CREATED: 03 JUN 08:31
    2016

ETSI P3575/16 AD ETSI: RWY25R CABLE NO.2 OUT OF SERVICE. 03 JUN
    08:29 2016 UNTIL 02 SEP 12:00 2016. CREATED: 03 JUN 08:34
    2016

ETSI P3576/16 AD ETSI: TACAN APCH RWY07R SUSPENDED. 03 JUN 08:41
    2016 UNTIL 02 SEP 12:00 2016. CREATED: 03 JUN 08:43 2016

ETSI P3577/16 AD ETSI: LIMITED RADAR COVERAGE BELOW 5000FT MSL.
    DETAILED INFORMATION BY INGO RADAR. 03 JUN 08:42 2016 UNTIL
    02 SEP 12:00 2016. CREATED: 03 JUN 08:44 2016

ETSI P3578/16 AD ETSI: NO SRA POSSIBLE. 03 JUN 08:43 2016 UNTIL
    02 SEP 12:00 2016. CREATED: 03 JUN 08:44 2016

ETSI P3579/16 AD ETSI: PAR RWY25R/07L OUT OF SERVICE. 03 JUN
    08:44 2016 UNTIL 02 SEP 12:00 2016. CREATED: 03 JUN 08:47
    2016

ETSI P3580/16 AD ETSI: PAR RWY25L/07R OUT OF SERVICE. 03 JUN
    08:45 2016 UNTIL 02 SEP 12:00 2016. CREATED: 03 JUN 08:48
    2016

ETSI P4285/16 AD ETSI: PAPI 25R RIGHT SIDE 3 LIGHTS ONLY. 29
    JUN 10:46 2016 UNTIL 23 SEP 11:00 2016. CREATED: 29 JUN 10:57
    2016

ETSI P4338/16 AD MIL OPENING HOURS CHANGED TO: MON-THU 0700-1400
    FRI 0700-1100. 30 JUN 13:19 2016 UNTIL 30 SEP 12:00 2016.
    CREATED: 30 JUN 13:27 2016

ETSI P4562/16 TWY 'S' CLOSED BETWEEN 'D' AND 'A3' INTERSECTION.
    13 JUL 07:32 2016 UNTIL 31 AUG 14:00 2016. CREATED: 13 JUL
    07:43 2016

ETSI P4721/16 AERODROME CLOSED EXCEPT CIVIL AIR TRAFFIC WITH
    PPR AUG. 01, 05, 08, 12, 19, 22, 26, 29 SEPT. 05. 01 AUG
    07:00 2016 UNTIL 05 SEP 15:00 2016. CREATED: 22 JUL 07:08
    2016

ETSI P4824/16 FREQ 123.300 COMBINED RADAR, FREQ 362.300 COMBINED
    ATC, FREQ 344.000 COMBINED RADAR SEARCH OUT OF SERVICE. 27
    JUL 10:47 2016 UNTIL 21 OCT 13:00 2016. CREATED: 27 JUL 10:59
    2016

ETSI P5471/16 NO AVGAS AVAILABLE. 23 AUG 11:49 2016 UNTIL 06
    SEP 15:00 2016. CREATED: 23 AUG 11:54 2016

---------------------------------------------------------------------------